Time;durP1;ratioP1;P1;durP2;ratioP2;P2;SDS_P1;SDS_P2;PMS_P1;PMS_P2;Temp;Humidity;BMP_temperature;BMP_pressure;BME280_temperature;BME280_humidity;BME280_pressure;Samples;Min_cycle;Max_cycle;Signal;HPM_P1;HPM_P2
2022/04/06 00:00:14;;;;;;;8.90;5.90;;;9.50;64.30;;;;;;5059635;28;46385;-62
2022/04/06 00:02:40;;;;;;;10.60;5.87;;;9.50;65.00;;;;;;5061076;28;45797;-62
2022/04/06 00:05:09;;;;;;;10.13;5.50;;;9.40;64.90;;;;;;5054883;28;46916;-62
2022/04/06 00:07:38;;;;;;;7.87;5.67;;;9.30;64.80;;;;;;5054263;28;47129;-63
2022/04/06 00:10:05;;;;;;;9.20;4.93;;;9.30;64.80;;;;;;5061258;28;46400;-63
2022/04/06 00:12:30;;;;;;;7.57;5.47;;;9.30;64.80;;;;;;5060000;28;46427;-60
2022/04/06 00:14:56;;;;;;;12.73;5.40;;;9.30;64.80;;;;;;5057061;28;46421;-62
2022/04/06 00:17:22;;;;;;;9.50;5.83;;;9.40;64.90;;;;;;5060488;28;46474;-62
2022/04/06 00:19:47;;;;;;;7.77;5.60;;;9.40;65.10;;;;;;5060423;28;46357;-62
2022/04/06 00:22:13;;;;;;;9.23;5.80;;;9.40;64.90;;;;;;5061370;28;46428;-63
2022/04/06 00:24:39;;;;;;;8.50;5.57;;;9.30;64.80;;;;;;5060430;28;45896;-61
2022/04/06 00:27:04;;;;;;;11.40;6.40;;;9.30;64.80;;;;;;5055197;28;46378;-61
2022/04/06 00:29:30;;;;;;;8.70;5.40;;;9.40;64.90;;;;;;5048832;28;46273;-62
2022/04/06 00:31:55;;;;;;;10.13;6.57;;;9.40;64.90;;;;;;5052664;28;46317;-62
2022/04/06 00:35:28;;;;;;;8.97;6.03;;;9.40;64.90;;;;;;5047417;28;46650;-62
2022/04/06 00:37:07;;;;;;;8.70;6.10;;;9.40;64.90;;;;;;5057100;28;47185;-63
2022/04/06 00:39:32;;;;;;;9.43;6.47;;;9.40;64.90;;;;;;5060847;28;46656;-62
2022/04/06 00:41:58;;;;;;;9.60;6.77;;;9.50;65.00;;;;;;5059847;28;46369;-61
2022/04/06 00:44:24;;;;;;;9.87;6.30;;;9.50;64.80;;;;;;5058951;28;46424;-62
2022/04/06 00:46:50;;;;;;;10.00;6.57;;;9.50;64.70;;;;;;5061040;28;46536;-61
2022/04/06 00:49:15;;;;;;;9.50;6.23;;;9.50;64.70;;;;;;5057850;28;46274;-61
2022/04/06 00:51:44;;;;;;;8.93;6.30;;;9.50;64.60;;;;;;5057873;28;46384;-64
2022/04/06 00:54:15;;;;;;;8.37;5.80;;;9.60;64.60;;;;;;5059950;28;46669;-62
2022/04/06 00:56:42;;;;;;;8.80;5.77;;;9.60;64.50;;;;;;5060140;28;47130;-62
2022/04/06 00:59:08;;;;;;;8.90;6.10;;;9.60;65.60;;;;;;5049763;28;46499;-62
2022/04/06 01:01:34;;;;;;;8.87;5.80;;;9.60;64.40;;;;;;5064367;28;46366;-62
2022/04/06 01:04:00;;;;;;;10.70;5.93;;;9.60;65.10;;;;;;5063871;28;46495;-61
2022/04/06 01:06:26;;;;;;;11.17;5.60;;;9.60;64.50;;;;;;5060836;28;46412;-62
2022/04/06 01:08:52;;;;;;;11.70;6.50;;;9.70;64.60;;;;;;5062027;28;46290;-62
2022/04/06 01:11:19;;;;;;;12.10;5.70;;;9.60;64.60;;;;;;5063258;28;46341;-61
2022/04/06 01:13:45;;;;;;;7.70;5.37;;;9.70;64.70;;;;;;5061798;28;46477;-61
2022/04/06 01:16:10;;;;;;;12.43;6.23;;;9.60;64.70;;;;;;5061889;28;46454;-62
2022/04/06 01:18:36;;;;;;;10.20;5.67;;;9.60;64.70;;;;;;5061112;28;46396;-61
2022/04/06 01:21:03;;;;;;;8.40;5.90;;;9.60;65.10;;;;;;5061454;28;46402;-61
2022/04/06 01:23:30;;;;;;;8.93;5.73;;;9.40;64.90;;;;;;5063215;28;46338;-61
2022/04/06 01:25:56;;;;;;;8.90;6.13;;;9.20;65.20;;;;;;5062202;28;46364;-61
2022/04/06 01:28:21;;;;;;;7.63;5.40;;;9.00;67.10;;;;;;5049807;28;46492;-63
2022/04/06 01:30:47;;;;;;;8.90;5.93;;;8.90;66.00;;;;;;5064314;28;46403;-61
2022/04/06 01:33:13;;;;;;;11.33;6.10;;;9.00;66.00;;;;;;5061340;28;46311;-62
2022/04/06 01:35:41;;;;;;;9.07;5.37;;;9.00;65.90;;;;;;5063301;28;46319;-63
2022/04/06 01:38:06;;;;;;;7.50;5.33;;;9.00;67.20;;;;;;5061693;28;46380;-61
2022/04/06 01:40:33;;;;;;;8.33;5.60;;;9.00;66.20;;;;;;5059415;28;46283;-62
2022/04/06 01:42:59;;;;;;;7.97;5.57;;;8.90;66.20;;;;;;5056540;28;46436;-63
2022/04/06 01:45:24;;;;;;;7.90;5.50;;;8.80;66.40;;;;;;5059872;28;46714;-63
2022/04/06 01:47:50;;;;;;;9.57;5.40;;;8.70;66.70;;;;;;5056705;28;46381;-61
2022/04/06 01:53:00;;;;;;;7.80;5.90;;;8.50;67.40;;;;;;5057006;28;46552;-61
2022/04/06 01:55:26;;;;;;;11.97;6.10;;;8.40;67.80;;;;;;5060808;28;48170;-61
2022/04/06 01:57:51;;;;;;;8.70;5.73;;;8.20;68.10;;;;;;5059680;28;46614;-63
2022/04/06 02:00:18;;;;;;;7.53;5.20;;;8.20;68.30;;;;;;5062084;28;46436;-61
2022/04/06 02:02:48;;;;;;;9.00;5.60;;;8.10;68.50;;;;;;5058318;28;46643;-60
2022/04/06 02:05:15;;;;;;;9.97;6.00;;;8.10;68.40;;;;;;5060937;28;46635;-61
2022/04/06 02:07:42;;;;;;;8.50;5.80;;;8.10;68.30;;;;;;5061640;28;46306;-61
2022/04/06 02:10:08;;;;;;;8.63;5.77;;;8.20;68.00;;;;;;5057637;28;46401;-62
2022/04/06 02:12:34;;;;;;;11.00;6.20;;;8.30;67.60;;;;;;5049570;28;46525;-62
2022/04/06 02:15:00;;;;;;;8.10;5.67;;;8.50;67.40;;;;;;5058156;28;48054;-60
2022/04/06 02:17:28;;;;;;;9.40;6.40;;;8.60;67.10;;;;;;5058336;28;46478;-61
2022/04/06 02:19:54;;;;;;;8.07;5.10;;;8.70;66.80;;;;;;5061185;28;46434;-62
2022/04/06 02:22:20;;;;;;;8.37;5.47;;;8.80;66.70;;;;;;5056273;28;46528;-62
2022/04/06 02:24:46;;;;;;;9.33;5.50;;;8.90;67.70;;;;;;5059652;28;46433;-61
2022/04/06 02:27:11;;;;;;;10.10;5.07;;;8.80;66.40;;;;;;5056561;28;46501;-63
2022/04/06 02:29:39;;;;;;;7.17;5.13;;;8.80;66.70;;;;;;5058133;28;46448;-63
2022/04/06 02:32:05;;;;;;;9.03;6.00;;;8.80;66.90;;;;;;5058563;28;46559;-62
2022/04/06 02:34:31;;;;;;;8.87;5.57;;;8.70;67.00;;;;;;5057577;28;46196;-64
2022/04/06 02:36:57;;;;;;;8.10;5.57;;;8.70;67.10;;;;;;5060813;28;46437;-63
2022/04/06 02:39:23;;;;;;;9.27;5.10;;;8.80;67.20;;;;;;5056600;28;46420;-62
2022/04/06 02:41:49;;;;;;;7.87;4.73;;;8.70;67.10;;;;;;5061129;28;46712;-61
2022/04/06 02:44:15;;;;;;;11.13;6.37;;;8.70;67.40;;;;;;5058687;28;47170;-61
2022/04/06 02:46:42;;;;;;;8.37;5.60;;;8.60;67.60;;;;;;5062456;28;46437;-61
2022/04/06 02:49:08;;;;;;;8.40;5.80;;;8.60;67.80;;;;;;5056594;28;46433;-62
2022/04/06 02:51:33;;;;;;;9.37;6.20;;;8.50;67.80;;;;;;5056677;28;46381;-62
2022/04/06 02:53:59;;;;;;;10.87;6.97;;;8.50;68.00;;;;;;5057238;28;46348;-62
2022/04/06 02:56:24;;;;;;;10.43;7.47;;;8.40;68.10;;;;;;5060720;28;46354;-62
2022/04/06 02:58:50;;;;;;;10.47;7.17;;;8.40;68.10;;;;;;5050654;28;46691;-61
2022/04/06 03:01:16;;;;;;;11.50;6.60;;;8.40;68.20;;;;;;5061079;28;46320;-61
2022/04/06 03:03:41;;;;;;;11.50;7.73;;;8.40;68.10;;;;;;5055477;28;47025;-62
2022/04/06 03:06:07;;;;;;;11.57;7.63;;;8.50;68.10;;;;;;5061960;28;46583;-60
2022/04/06 03:08:33;;;;;;;13.33;9.23;;;8.50;67.80;;;;;;5060255;28;46656;-61
2022/04/06 03:10:59;;;;;;;14.47;9.17;;;8.50;67.80;;;;;;5061698;28;45903;-61
2022/04/06 03:13:25;;;;;;;11.90;8.03;;;8.60;67.70;;;;;;5060725;28;46429;-61
2022/04/06 03:15:51;;;;;;;10.80;7.90;;;8.60;67.60;;;;;;5062544;28;46306;-61
2022/04/06 03:18:16;;;;;;;12.80;7.63;;;8.70;67.60;;;;;;5062434;28;46393;-62
2022/04/06 03:20:42;;;;;;;14.03;8.30;;;8.70;67.70;;;;;;5062407;28;46200;-61
2022/04/06 03:23:08;;;;;;;11.10;8.23;;;8.70;67.70;;;;;;5058051;28;46396;-61
2022/04/06 03:25:34;;;;;;;13.83;8.40;;;8.70;67.60;;;;;;5061157;28;46367;-62
2022/04/06 03:28:00;;;;;;;12.17;8.40;;;8.80;67.60;;;;;;5061311;28;46409;-61
2022/04/06 03:30:25;;;;;;;11.13;7.67;;;8.80;67.50;;;;;;5061964;28;46558;-61
2022/04/06 03:32:51;;;;;;;15.10;8.10;;;8.90;67.60;;;;;;5061096;28;46532;-61
2022/04/06 03:35:17;;;;;;;12.43;8.63;;;8.80;67.60;;;;;;5059900;28;46561;-62
2022/04/06 03:37:43;;;;;;;11.93;7.50;;;8.80;67.50;;;;;;5059161;28;46568;-62
2022/04/06 03:40:10;;;;;;;15.27;8.40;;;8.80;67.60;;;;;;5059854;28;46444;-61
2022/04/06 03:42:35;;;;;;;12.37;7.77;;;8.80;67.60;;;;;;5058658;28;46892;-61
2022/04/06 03:45:02;;;;;;;19.33;9.13;;;8.80;67.80;;;;;;5061253;28;46327;-62
2022/04/06 03:47:29;;;;;;;13.57;9.70;;;8.70;67.90;;;;;;5057953;28;47029;-62
2022/04/06 03:49:54;;;;;;;11.30;7.97;;;8.70;68.00;;;;;;5060932;28;46398;-63
2022/04/06 03:52:20;;;;;;;13.67;8.27;;;8.70;68.00;;;;;;5062157;28;47253;-63
2022/04/06 03:54:46;;;;;;;16.30;9.60;;;8.80;68.10;;;;;;5057973;28;46427;-64
2022/04/06 03:57:12;;;;;;;12.83;8.50;;;8.80;68.00;;;;;;5060177;28;46600;-62
2022/04/06 03:59:38;;;;;;;12.83;8.43;;;8.70;67.90;;;;;;5060965;28;46506;-63
2022/04/06 04:02:04;;;;;;;12.57;7.87;;;8.70;67.90;;;;;;5058980;28;47232;-60
2022/04/06 04:04:30;;;;;;;10.47;6.40;;;8.80;68.00;;;;;;5056231;28;46384;-61
2022/04/06 04:06:55;;;;;;;12.77;6.90;;;8.80;68.00;;;;;;5057172;28;46386;-61
2022/04/06 04:09:21;;;;;;;11.00;7.40;;;8.80;67.90;;;;;;5056841;28;46642;-60
2022/04/06 04:11:47;;;;;;;9.67;6.77;;;8.90;67.70;;;;;;5061281;28;47118;-61
2022/04/06 04:14:12;;;;;;;11.07;6.93;;;8.90;67.60;;;;;;5057316;28;46467;-63
2022/04/06 04:16:38;;;;;;;9.60;6.90;;;8.90;67.80;;;;;;5053167;28;46540;-63
2022/04/06 04:19:03;;;;;;;9.00;5.90;;;8.90;68.90;;;;;;5058083;28;46257;-61
2022/04/06 04:21:32;;;;;;;11.90;6.80;;;8.90;67.70;;;;;;5056609;28;46282;-63
2022/04/06 04:23:58;;;;;;;6.90;5.40;;;9.00;67.60;;;;;;5060856;28;46751;-62
2022/04/06 04:26:24;;;;;;;10.07;6.13;;;9.00;67.50;;;;;;5060148;28;46372;-61
2022/04/06 04:28:50;;;;;;;10.13;6.17;;;9.00;67.60;;;;;;5060072;28;46510;-61
2022/04/06 04:31:15;;;;;;;10.33;6.40;;;9.00;67.60;;;;;;5060629;28;47428;-62
2022/04/06 04:33:41;;;;;;;7.90;5.50;;;9.00;67.50;;;;;;5060062;28;46444;-62
2022/04/06 04:36:07;;;;;;;7.53;5.07;;;9.10;67.40;;;;;;5060164;28;46370;-62
2022/04/06 04:38:32;;;;;;;10.30;5.83;;;9.10;67.20;;;;;;5057119;28;46354;-62
2022/04/06 04:40:58;;;;;;;8.37;5.50;;;9.10;67.10;;;;;;5056224;28;47083;-61
2022/04/06 04:43:23;;;;;;;10.57;6.13;;;9.10;67.10;;;;;;5060840;28;46417;-61
2022/04/06 04:45:49;;;;;;;7.87;5.40;;;9.10;67.30;;;;;;5056344;28;45802;-60
2022/04/06 04:48:14;;;;;;;12.83;6.10;;;9.10;67.30;;;;;;5060242;28;46530;-62
2022/04/06 04:50:40;;;;;;;7.40;4.80;;;9.10;67.40;;;;;;5061178;28;47031;-62
2022/04/06 04:53:06;;;;;;;7.13;4.90;;;9.10;67.40;;;;;;5060102;28;46408;-62
2022/04/06 04:55:32;;;;;;;8.93;5.13;;;9.10;67.40;;;;;;5059764;28;46543;-62
2022/04/06 04:57:58;;;;;;;9.50;5.33;;;9.10;67.30;;;;;;5061284;28;46689;-62
2022/04/06 05:00:24;;;;;;;8.97;5.60;;;9.20;67.40;;;;;;5058365;28;46468;-61
2022/04/06 05:02:50;;;;;;;7.73;5.00;;;9.20;67.10;;;;;;5049980;28;46479;-61
2022/04/06 05:05:15;;;;;;;6.37;4.47;;;9.20;67.20;;;;;;5059408;28;46410;-61
2022/04/06 05:07:41;;;;;;;6.87;4.80;;;9.20;67.20;;;;;;5059094;28;46628;-62
2022/04/06 05:10:08;;;;;;;7.43;5.03;;;9.30;67.20;;;;;;5060049;28;46281;-61
2022/04/06 05:12:34;;;;;;;8.40;5.27;;;9.30;67.20;;;;;;5052126;28;46259;-62
2022/04/06 05:15:00;;;;;;;8.63;5.40;;;9.30;67.20;;;;;;5054126;28;45810;-63
2022/04/06 05:17:26;;;;;;;8.60;5.87;;;9.30;67.30;;;;;;5056431;28;46526;-63
2022/04/06 05:19:53;;;;;;;11.20;6.00;;;9.40;67.30;;;;;;5052343;28;47221;-61
2022/04/06 05:22:18;;;;;;;6.97;5.00;;;9.40;67.20;;;;;;5054514;28;46462;-61
2022/04/06 05:24:44;;;;;;;6.47;5.07;;;9.40;67.10;;;;;;5057508;28;46430;-61
2022/04/06 05:27:09;;;;;;;9.03;5.47;;;9.50;67.10;;;;;;5055477;28;46444;-63
2022/04/06 05:29:35;;;;;;;9.60;5.27;;;9.50;67.30;;;;;;5057477;28;46298;-62
2022/04/06 05:32:02;;;;;;;7.85;5.45;;;9.60;67.90;;;;;;5059787;28;45697;-61
2022/04/06 05:34:28;;;;;;;6.50;4.93;;;9.60;68.00;;;;;;5059439;28;46476;-62
2022/04/06 05:36:54;;;;;;;9.73;5.67;;;9.60;68.40;;;;;;5050653;28;46516;-62
2022/04/06 05:39:19;;;;;;;8.53;5.10;;;9.70;68.10;;;;;;5060153;28;46319;-61
2022/04/06 05:41:45;;;;;;;7.90;5.60;;;9.80;67.90;;;;;;5060273;28;46324;-62
2022/04/06 05:44:11;;;;;;;7.20;5.00;;;9.90;67.60;;;;;;5059314;28;46343;-62
2022/04/06 05:46:36;;;;;;;8.63;5.83;;;10.00;66.30;;;;;;5060156;28;46331;-61
2022/04/06 05:49:02;;;;;;;9.30;6.30;;;10.10;65.90;;;;;;5063898;28;46321;-63
2022/04/06 05:51:27;;;;;;;15.90;9.77;;;10.20;65.60;;;;;;5063683;28;45787;-62
2022/04/06 05:53:53;;;;;;;10.57;5.10;;;10.30;65.20;;;;;;5062535;28;46557;-62
2022/04/06 05:56:19;;;;;;;6.80;5.30;;;10.40;64.80;;;;;;5062944;28;46910;-62
2022/04/06 05:58:44;;;;;;;7.40;5.00;;;10.50;64.90;;;;;;5063174;28;47122;-61
2022/04/06 06:01:10;;;;;;;9.60;5.87;;;10.60;65.10;;;;;;5062385;28;46440;-61
2022/04/06 06:03:36;;;;;;;8.57;5.60;;;10.80;64.50;;;;;;5060313;28;46365;-61
2022/04/06 06:06:02;;;;;;;12.73;6.13;;;10.90;64.50;;;;;;5061650;28;46365;-62
2022/04/06 06:08:27;;;;;;;8.73;5.70;;;10.90;64.80;;;;;;5061682;28;46589;-62
2022/04/06 06:10:53;;;;;;;7.30;5.03;;;11.00;64.90;;;;;;5060585;28;46308;-64
2022/04/06 06:13:18;;;;;;;8.53;5.60;;;11.10;64.40;;;;;;5061525;28;46278;-63
2022/04/06 06:15:45;;;;;;;10.07;5.70;;;11.20;64.10;;;;;;5061366;28;46360;-61
2022/04/06 06:18:12;;;;;;;8.57;6.00;;;11.30;64.30;;;;;;5061602;28;46467;-63
2022/04/06 06:20:38;;;;;;;12.23;5.80;;;11.30;64.10;;;;;;5059209;28;46350;-63
2022/04/06 06:23:03;;;;;;;5.50;4.27;;;11.20;64.20;;;;;;5058499;28;46477;-62
2022/04/06 06:25:29;;;;;;;6.90;4.90;;;11.20;64.20;;;;;;5059681;28;46351;-63
2022/04/06 06:27:54;;;;;;;6.67;4.67;;;11.20;64.40;;;;;;5056419;28;47346;-62
2022/04/06 06:30:21;;;;;;;11.10;5.95;;;11.20;64.20;;;;;;5057431;28;46636;-63
2022/04/06 06:32:46;;;;;;;7.60;5.03;;;11.40;63.90;;;;;;5045326;28;46436;-63
2022/04/06 06:35:12;;;;;;;8.43;4.43;;;11.50;63.80;;;;;;5061146;28;46742;-64
2022/04/06 06:37:48;;;;;;;8.23;5.70;;;11.70;63.80;;;;;;5056038;28;46362;-63
2022/04/06 06:40:16;;;;;;;6.07;4.10;;;11.90;63.30;;;;;;5061254;28;46488;-61
2022/04/06 06:42:41;;;;;;;8.23;4.47;;;12.00;62.90;;;;;;5059741;28;46462;-62
2022/04/06 06:45:07;;;;;;;7.13;4.30;;;12.20;62.60;;;;;;5062462;28;46349;-62
2022/04/06 06:47:33;;;;;;;7.70;4.67;;;12.30;62.30;;;;;;5059755;28;47047;-63
2022/04/06 06:49:58;;;;;;;7.10;3.87;;;12.40;62.20;;;;;;5054708;28;46533;-60
2022/04/06 06:52:24;;;;;;;6.60;4.37;;;12.50;62.00;;;;;;5061653;28;46435;-60
2022/04/06 06:54:49;;;;;;;6.70;4.63;;;12.60;61.80;;;;;;5060325;28;46401;-63
2022/04/06 06:57:15;;;;;;;5.70;4.50;;;12.70;61.50;;;;;;5060768;28;46089;-62
2022/04/06 06:59:41;;;;;;;5.77;4.37;;;12.50;61.40;;;;;;5061832;28;46306;-62
2022/04/06 07:02:11;;;;;;;5.97;3.70;;;12.50;61.70;;;;;;5061819;28;46408;-62
2022/04/06 07:04:37;;;;;;;5.70;3.83;;;12.50;61.90;;;;;;5060499;28;46477;-64
2022/04/06 07:07:03;;;;;;;6.83;4.07;;;12.50;62.10;;;;;;5061740;28;46609;-61
2022/04/06 07:09:28;;;;;;;6.70;4.40;;;12.80;62.10;;;;;;5059945;28;46387;-61
2022/04/06 07:11:54;;;;;;;6.83;4.20;;;12.90;61.40;;;;;;5058590;28;46502;-62
2022/04/06 07:14:20;;;;;;;5.47;4.00;;;12.60;61.70;;;;;;5059661;28;45898;-61
2022/04/06 07:16:46;;;;;;;5.97;4.27;;;12.70;61.60;;;;;;5059784;28;46310;-63
2022/04/06 07:19:12;;;;;;;5.10;3.90;;;12.50;61.70;;;;;;5060268;28;46372;-63
2022/04/06 07:21:37;;;;;;;8.07;5.83;;;12.70;62.20;;;;;;5060251;28;46477;-62
2022/04/06 07:24:03;;;;;;;7.60;4.40;;;12.80;61.80;;;;;;5059181;28;46488;-64
2022/04/06 07:26:29;;;;;;;8.83;4.87;;;12.80;61.80;;;;;;5062770;28;46402;-63
2022/04/06 07:28:55;;;;;;;6.17;4.17;;;12.50;61.70;;;;;;5055585;28;46607;-63
2022/04/06 07:31:21;;;;;;;10.20;4.57;;;12.40;62.10;;;;;;5062586;28;46493;-63
2022/04/06 07:33:46;;;;;;;8.57;4.10;;;12.40;62.80;;;;;;5057304;28;46358;-63
2022/04/06 07:36:13;;;;;;;5.50;4.03;;;12.30;62.90;;;;;;5050549;28;46420;-64
2022/04/06 07:38:39;;;;;;;6.00;4.50;;;12.40;63.60;;;;;;5055381;28;46769;-64
2022/04/06 07:41:04;;;;;;;5.53;3.90;;;12.60;63.10;;;;;;5053107;28;45784;-64
2022/04/06 07:43:30;;;;;;;5.90;4.27;;;12.60;62.50;;;;;;5048574;28;46437;-62
2022/04/06 07:45:56;;;;;;;6.97;4.00;;;12.50;62.90;;;;;;5055573;28;47311;-64
2022/04/06 07:48:25;;;;;;;5.63;4.10;;;12.50;62.10;;;;;;5054188;28;46393;-63
2022/04/06 07:50:50;;;;;;;6.20;4.13;;;12.50;62.40;;;;;;5055134;28;46635;-64
2022/04/06 07:53:17;;;;;;;6.80;4.23;;;12.60;62.20;;;;;;5060915;28;46491;-64
2022/04/06 07:55:44;;;;;;;5.37;4.10;;;12.90;61.80;;;;;;5059948;28;47291;-65
2022/04/06 07:58:10;;;;;;;6.07;4.40;;;13.20;61.10;;;;;;5059161;28;46482;-64
2022/04/06 08:00:36;;;;;;;6.03;4.33;;;13.80;60.20;;;;;;5058929;28;46327;-64
2022/04/06 08:03:01;;;;;;;5.83;4.13;;;14.20;58.90;;;;;;5054628;28;46490;-63
2022/04/06 08:05:27;;;;;;;7.93;4.67;;;14.50;57.70;;;;;;5057755;28;47244;-63
2022/04/06 08:07:54;;;;;;;4.87;3.80;;;14.30;56.90;;;;;;5060823;28;46291;-63
2022/04/06 08:10:20;;;;;;;6.93;4.40;;;14.20;57.40;;;;;;5060326;28;46441;-64
2022/04/06 08:12:47;;;;;;;6.33;4.17;;;13.90;57.60;;;;;;5059996;28;46560;-63
2022/04/06 08:15:14;;;;;;;5.67;4.03;;;13.70;58.30;;;;;;5057739;28;46476;-62
2022/04/06 08:17:45;;;;;;;5.87;3.60;;;13.60;57.90;;;;;;5060223;28;46214;-63
2022/04/06 08:20:13;;;;;;;5.70;3.83;;;13.60;58.00;;;;;;5060823;28;46710;-62
2022/04/06 08:22:43;;;;;;;6.83;3.90;;;13.40;58.30;;;;;;5061139;28;46390;-64
2022/04/06 08:25:09;;;;;;;5.33;3.77;;;13.30;58.30;;;;;;5059189;28;46676;-62
2022/04/06 08:27:39;;;;;;;7.80;3.53;;;13.40;58.30;;;;;;5059775;28;46401;-63
2022/04/06 08:30:06;;;;;;;6.23;3.80;;;13.40;58.00;;;;;;5052175;28;46485;-63
2022/04/06 08:32:32;;;;;;;8.40;4.27;;;13.50;58.00;;;;;;5061052;28;46343;-63
2022/04/06 08:34:58;;;;;;;6.63;3.53;;;13.60;57.60;;;;;;5060332;28;46914;-63
2022/04/06 08:37:23;;;;;;;6.23;3.83;;;13.60;57.10;;;;;;5059263;28;46494;-64
2022/04/06 08:39:49;;;;;;;9.67;3.80;;;13.60;57.20;;;;;;5060414;28;46475;-65
2022/04/06 08:42:15;;;;;;;6.60;4.07;;;13.60;57.60;;;;;;5058280;28;46347;-64
2022/04/06 08:44:40;;;;;;;5.10;4.00;;;13.50;57.40;;;;;;5057080;28;47036;-63
2022/04/06 08:47:07;;;;;;;5.50;3.77;;;13.40;57.20;;;;;;5057964;28;46334;-64
2022/04/06 08:49:36;;;;;;;6.83;4.63;;;13.40;57.40;;;;;;5058521;28;46421;-65
2022/04/06 08:52:03;;;;;;;6.00;4.50;;;13.30;57.40;;;;;;5059115;28;45903;-64
2022/04/06 08:54:29;;;;;;;7.10;4.67;;;13.40;57.20;;;;;;5056749;28;46359;-64
2022/04/06 08:56:55;;;;;;;5.60;4.03;;;13.70;57.30;;;;;;5056220;28;46298;-62
2022/04/06 08:59:22;;;;;;;6.43;4.37;;;14.30;56.40;;;;;;5057268;28;45800;-64
2022/04/06 09:01:47;;;;;;;8.40;4.57;;;14.30;55.90;;;;;;5054732;28;46498;-63
2022/04/06 09:04:13;;;;;;;6.03;4.40;;;14.10;56.50;;;;;;5053686;28;47073;-64
2022/04/06 09:06:44;;;;;;;7.73;4.80;;;14.20;56.80;;;;;;5057808;28;46431;-63
2022/04/06 09:09:10;;;;;;;8.00;4.80;;;13.90;57.70;;;;;;5061316;28;46318;-63
2022/04/06 09:11:43;;;;;;;5.47;4.13;;;14.00;57.50;;;;;;5058473;28;46410;-63
2022/04/06 09:14:10;;;;;;;6.20;3.67;;;14.20;57.20;;;;;;5033521;28;48362;-63
2022/04/06 09:16:37;;;;;;;6.77;4.50;;;14.20;56.90;;;;;;5059834;28;46263;-63
2022/04/06 09:19:09;;;;;;;6.37;4.90;;;14.30;56.60;;;;;;5063199;28;46390;-61
2022/04/06 09:21:43;;;;;;;5.83;4.20;;;14.30;57.30;;;;;;5063441;28;46394;-62
2022/04/06 09:24:16;;;;;;;5.80;4.17;;;14.20;57.40;;;;;;5062668;28;46182;-62
2022/04/06 09:26:42;;;;;;;7.00;4.33;;;14.10;57.70;;;;;;5063676;28;46400;-64
2022/04/06 09:29:12;;;;;;;13.17;4.23;;;14.30;58.50;;;;;;5057155;28;46551;-62
2022/04/06 09:31:39;;;;;;;8.90;5.13;;;14.30;58.40;;;;;;5061307;28;46562;-63
2022/04/06 09:34:09;;;;;;;6.33;4.20;;;14.50;58.50;;;;;;5061779;28;46295;-64
2022/04/06 09:36:38;;;;;;;6.10;4.60;;;14.70;57.50;;;;;;5059375;28;45746;-65
2022/04/06 09:39:05;;;;;;;9.47;4.27;;;14.90;57.30;;;;;;5063249;28;46255;-63
2022/04/06 09:41:31;;;;;;;11.10;4.90;;;15.00;56.20;;;;;;5060441;28;46392;-64
2022/04/06 09:47:38;;;;;;;6.60;4.87;;;14.70;56.00;;;;;;5061577;28;46079;-63
2022/04/06 09:50:32;;;;;;;7.40;5.43;;;15.00;57.40;;;;;;5062040;28;46381;-63
2022/04/06 09:53:00;;;;;;;7.77;4.00;;;15.40;56.30;;;;;;5003150;28;46400;-64
2022/04/06 09:55:25;;;;;;;7.40;4.10;;;15.50;55.50;;;;;;5059154;28;47060;-63
2022/04/06 09:57:56;;;;;;;7.70;3.90;;;15.70;55.50;;;;;;5061306;28;46345;-63
2022/04/06 10:00:28;;;;;;;5.87;3.53;;;15.60;55.30;;;;;;5057004;28;46402;-63
2022/04/06 10:03:06;;;;;;;5.70;3.90;;;15.70;55.00;;;;;;5060025;28;46362;-64
2022/04/06 10:05:33;;;;;;;6.33;3.70;;;16.00;55.50;;;;;;5062495;28;47188;-63
2022/04/06 10:08:04;;;;;;;7.87;4.40;;;16.10;53.50;;;;;;5058738;28;46307;-63
2022/04/06 10:10:31;;;;;;;5.17;3.80;;;15.90;53.60;;;;;;5051965;28;46369;-63
2022/04/06 10:12:57;;;;;;;6.47;4.40;;;15.80;53.10;;;;;;5059799;28;46432;-63
2022/04/06 10:15:25;;;;;;;11.27;4.23;;;15.70;54.10;;;;;;5064684;28;46513;-63
2022/04/06 10:17:50;;;;;;;5.80;4.13;;;15.40;53.30;;;;;;5062294;28;46324;-63
2022/04/06 10:20:37;;;;;;;6.17;4.27;;;15.30;54.70;;;;;;5060459;28;46558;-63
2022/04/06 10:23:17;;;;;;;6.67;4.33;;;15.20;56.40;;;;;;5057295;28;46486;-63
2022/04/06 10:25:54;;;;;;;6.03;4.20;;;15.40;54.70;;;;;;5056754;28;47207;-63
2022/04/06 10:28:22;;;;;;;5.80;3.50;;;15.40;55.00;;;;;;5064494;28;46310;-64
2022/04/06 10:31:12;;;;;;;6.07;3.73;;;15.50;54.70;;;;;;5059487;28;46335;-64
2022/04/06 10:33:38;;;;;;;7.60;3.70;;;15.90;54.20;;;;;;5056588;28;46433;-64
2022/04/06 10:36:32;;;;;;;7.03;3.30;;;16.00;53.30;;;;;;5059708;28;47106;-64
2022/04/06 10:39:04;;;;;;;6.93;4.17;;;16.40;52.80;;;;;;5062125;28;46391;-63
2022/04/06 10:41:30;;;;;;;5.10;3.10;;;16.50;52.00;;;;;;5059863;28;45844;-63
2022/04/06 10:43:56;;;;;;;5.77;3.57;;;16.80;51.80;;;;;;5061198;28;46496;-63
2022/04/06 10:46:39;;;;;;;4.13;3.20;;;17.00;51.10;;;;;;5061569;28;46422;-63
2022/04/06 10:49:12;;;;;;;8.67;3.57;;;17.00;50.00;;;;;;5057127;28;46527;-63
2022/04/06 10:51:46;;;;;;;5.07;3.63;;;17.00;50.20;;;;;;5062399;28;46346;-62
2022/04/06 10:54:14;;;;;;;5.17;3.57;;;16.70;48.20;;;;;;5060865;28;46237;-63
2022/04/06 10:57:00;;;;;;;5.80;3.10;;;16.40;48.80;;;;;;5060856;28;47309;-62
2022/04/06 10:59:28;;;;;;;5.80;3.50;;;16.60;49.00;;;;;;5060090;28;46374;-62
2022/04/06 11:02:23;;;;;;;5.50;3.40;;;16.80;49.20;;;;;;5059936;28;46337;-63
2022/04/06 11:04:49;;;;;;;4.30;2.60;;;16.60;49.20;;;;;;5059755;28;46370;-63
2022/04/06 11:10:25;;;;;;;3.90;2.60;;;16.70;48.70;;;;;;5057233;28;46329;-62
2022/04/06 11:13:04;;;;;;;5.47;2.80;;;16.60;47.90;;;;;;5060653;28;46425;-63
2022/04/06 11:15:35;;;;;;;4.77;3.10;;;16.90;47.30;;;;;;5059086;28;46688;-64
2022/04/06 11:18:01;;;;;;;3.53;2.60;;;17.00;47.20;;;;;;5060065;28;46633;-63
2022/04/06 11:20:32;;;;;;;4.93;2.70;;;17.10;47.10;;;;;;5062908;28;45840;-63
2022/04/06 11:22:59;;;;;;;4.43;2.80;;;17.30;46.80;;;;;;5057902;28;46482;-64
2022/04/06 11:25:27;;;;;;;4.20;2.57;;;17.40;45.30;;;;;;5054932;28;46335;-65
2022/04/06 11:27:55;;;;;;;5.00;2.53;;;17.10;45.00;;;;;;5060504;28;46451;-65
2022/04/06 11:30:26;;;;;;;3.33;2.33;;;16.70;45.90;;;;;;5059275;28;46415;-63
2022/04/06 11:32:57;;;;;;;7.97;2.67;;;16.70;46.40;;;;;;5059178;28;46336;-63
2022/04/06 11:35:36;;;;;;;8.03;2.57;;;16.40;45.00;;;;;;5054237;28;46422;-63
2022/04/06 11:38:06;;;;;;;3.50;1.90;;;16.20;45.60;;;;;;5056195;28;46668;-63
2022/04/06 11:40:32;;;;;;;4.57;2.53;;;16.50;46.60;;;;;;5061746;28;46327;-64
2022/04/06 11:43:02;;;;;;;6.00;2.43;;;16.80;44.70;;;;;;5060444;28;46421;-63
2022/04/06 11:45:44;;;;;;;3.40;2.07;;;16.90;46.00;;;;;;5057873;28;46501;-62
2022/04/06 11:48:15;;;;;;;3.43;1.90;;;17.10;44.70;;;;;;5060257;28;46467;-63
2022/04/06 11:50:42;;;;;;;2.83;2.00;;;17.60;44.20;;;;;;5057500;28;46405;-62
2022/04/06 11:53:15;;;;;;;3.80;1.90;;;17.80;43.20;;;;;;5059176;28;46311;-62
2022/04/06 11:55:51;;;;;;;3.23;1.93;;;17.60;41.70;;;;;;5060951;28;46437;-61
2022/04/06 11:58:29;;;;;;;8.80;2.40;;;17.80;42.30;;;;;;5058813;28;46626;-63
2022/04/06 12:01:06;;;;;;;3.67;2.27;;;18.00;42.00;;;;;;5059765;28;46362;-63
2022/04/06 12:03:36;;;;;;;2.80;1.70;;;18.10;41.40;;;;;;5059820;28;46444;-63
2022/04/06 12:06:03;;;;;;;3.33;1.80;;;18.30;41.40;;;;;;5058572;28;46524;-62
2022/04/06 12:08:31;;;;;;;2.67;1.50;;;18.50;41.00;;;;;;5059703;28;46314;-62
2022/04/06 12:10:58;;;;;;;3.77;1.80;;;18.50;40.80;;;;;;5055087;28;46417;-63
2022/04/06 12:13:28;;;;;;;3.80;1.90;;;18.40;41.10;;;;;;5059235;28;46410;-64
2022/04/06 12:15:55;;;;;;;3.50;2.00;;;18.30;38.20;;;;;;5057803;28;46427;-63
2022/04/06 12:18:25;;;;;;;3.77;1.87;;;17.60;38.30;;;;;;5060032;28;46436;-63
2022/04/06 12:20:52;;;;;;;3.50;1.77;;;17.30;39.40;;;;;;5057754;28;45835;-65
2022/04/06 12:23:19;;;;;;;5.60;1.93;;;17.30;40.80;;;;;;5058251;28;46419;-63
2022/04/06 12:25:45;;;;;;;10.00;2.10;;;17.60;40.10;;;;;;5055095;28;46377;-62
2022/04/06 12:28:23;;;;;;;4.00;1.80;;;17.60;40.00;;;;;;5059358;28;47246;-62
2022/04/06 12:30:57;;;;;;;3.60;1.60;;;17.60;40.70;;;;;;5058527;28;46443;-62
2022/04/06 12:33:45;;;;;;;3.50;1.60;;;17.40;39.20;;;;;;5057124;28;46444;-62
2022/04/06 12:36:25;;;;;;;3.20;1.80;;;17.40;39.90;;;;;;5059528;28;46507;-63
2022/04/06 12:39:11;;;;;;;14.80;2.53;;;17.50;41.10;;;;;;5059841;28;46617;-63
2022/04/06 12:41:59;;;;;;;4.67;2.03;;;17.80;40.20;;;;;;5058054;28;46319;-63
2022/04/06 12:44:26;;;;;;;4.90;1.70;;;17.70;38.70;;;;;;5056386;28;46434;-63
2022/04/06 12:46:52;;;;;;;2.97;1.67;;;17.40;40.50;;;;;;5061487;28;46630;-62
2022/04/06 12:49:23;;;;;;;4.23;1.73;;;17.70;40.60;;;;;;5060388;28;46379;-63
2022/04/06 12:52:20;;;;;;;5.80;1.60;;;17.60;40.50;;;;;;5049802;28;46491;-61
2022/04/06 12:54:50;;;;;;;2.47;1.50;;;17.20;40.40;;;;;;5058361;28;46291;-63
2022/04/06 12:57:36;;;;;;;3.53;1.63;;;17.20;40.90;;;;;;5059370;28;45747;-65
2022/04/06 13:00:09;;;;;;;2.90;1.60;;;17.40;40.20;;;;;;5060528;28;46267;-62